Jack Northrop Field Hawthorne Municipal Airport
KHHR : now visible

Airfield :











YOU CAN JOIN US ON...

 
LOGIN :

Register | Disclaimer

   EN    FR    IT 

 









Legend :    VFR   Marginal VFR   IFR   Intensive IFR   Very Intensive IFR
Visi :
Ceiling :
>= 8 km
>= 3000ft
5 to 8 km
1000 to 3000 ft
1500m to 5 km
500 to 1000 ft
800 to 1500m
200 to 500 ft
< 800m
< 200 ft
Symbols :   Thunderstorms  Fog  Heavy snow  Heavy precipitations  Wind > 20 kt






- Airport Elevation : 66 ft


KHHR - Jack Northrop Field Hawthorne Municipal

CURRENT METAR :
  • 060216Z 24007KT 10SM BKN026 OVC031 15/10 A2986 RMK AO2 T01500100

EXPIRED METARs :
  • 060153Z 23007KT 10SM FEW024 BKN032 OVC080 15/09 A2986 RMK AO2 SLP112 T01500089
  • 060053Z 24008KT 10SM BKN080 16/08 A2986 RMK AO2 SLP112 T01560083
  • 052353Z 24011KT 10SM SCT042 17/09 A2986 RMK AO2 SLP112 T01720089 10172 20150 56011

TAF N/A



MET'MAP, your aeronautical weather chart ! - Copyright ORBIFLY December 2007 - Disclaimer

ORBIFLY MET'MAP TEAM :

Programming & Development : Alexandra Zaïnal
Concept & original design : Baudouin d'Aumeries
Assistance for programming : Marc-Olivier Méhu
Technical & hardware support : Manuel Goepfert

Contact : metmap@orbifly.com




SOURCES & CREDITS :

   NOAA       Earth
Advisory